Johnstown, Colorado
Current Conditions -  °F | °C
As of 9:15 PM on Tuesday 25 Nov 2014 (Local Time) from KFNL Reporting Station
Scattered Clouds Scattered Clouds  
Wind Chill: 23°   Ceiling: Unl
Heat Index: 34°   Visibility: 10mi
Dew Point: 25°   Wind: 18mph
Humidity: 70%   Direction: 40°NE
Pressure: 30.03"   Gusts: 23mph
Location:  40.34°N, 104.91°W
Report Text: KFNL 260415Z AUTO 04016G20KT 10SM SCT085 01/M04 A3003 RMK AO1
Loading
Personal Weather Stations






























Interactive Weather Map New forecast layout! Learn more

10-Day Weather Forecast

Advertisements
Track Severe Weather on mobile